sensor_id;sensor_type;location;lat;lon;timestamp;P1;durP1;ratioP1;P2;durP2;ratioP2
29906;SDS011;16776;50.958;10.994;2023-04-25T00:01:44;1.45;;;1.35;;
29906;SDS011;16776;50.958;10.994;2023-04-25T00:04:12;1.25;;;1.10;;
29906;SDS011;16776;50.958;10.994;2023-04-25T00:06:39;1.10;;;1.00;;
29906;SDS011;16776;50.958;10.994;2023-04-25T00:09:05;1.55;;;1.45;;
29906;SDS011;16776;50.958;10.994;2023-04-25T00:11:35;1.52;;;1.42;;
29906;SDS011;16776;50.958;10.994;2023-04-25T00:14:04;2.25;;;1.70;;
29906;SDS011;16776;50.958;10.994;2023-04-25T00:16:31;1.75;;;1.13;;
29906;SDS011;16776;50.958;10.994;2023-04-25T00:19:05;1.95;;;1.50;;
29906;SDS011;16776;50.958;10.994;2023-04-25T00:21:33;2.22;;;1.40;;
29906;SDS011;16776;50.958;10.994;2023-04-25T00:24:00;1.75;;;1.65;;
29906;SDS011;16776;50.958;10.994;2023-04-25T00:26:27;1.58;;;1.33;;
29906;SDS011;16776;50.958;10.994;2023-04-25T00:28:53;2.17;;;1.10;;
29906;SDS011;16776;50.958;10.994;2023-04-25T00:31:20;2.83;;;1.42;;
29906;SDS011;16776;50.958;10.994;2023-04-25T00:33:47;1.58;;;1.48;;
29906;SDS011;16776;50.958;10.994;2023-04-25T00:36:13;2.25;;;1.40;;
29906;SDS011;16776;50.958;10.994;2023-04-25T00:38:42;2.10;;;1.33;;
29906;SDS011;16776;50.958;10.994;2023-04-25T00:41:08;2.30;;;1.20;;
29906;SDS011;16776;50.958;10.994;2023-04-25T00:43:36;1.42;;;1.23;;
29906;SDS011;16776;50.958;10.994;2023-04-25T00:46:03;1.40;;;1.05;;
29906;SDS011;16776;50.958;10.994;2023-04-25T00:48:30;1.52;;;1.25;;
29906;SDS011;16776;50.958;10.994;2023-04-25T00:50:57;1.42;;;0.90;;
29906;SDS011;16776;50.958;10.994;2023-04-25T00:53:25;1.77;;;1.33;;
29906;SDS011;16776;50.958;10.994;2023-04-25T00:55:54;1.17;;;1.08;;
29906;SDS011;16776;50.958;10.994;2023-04-25T00:58:22;1.25;;;1.25;;
29906;SDS011;16776;50.958;10.994;2023-04-25T01:00:49;2.53;;;1.30;;
29906;SDS011;16776;50.958;10.994;2023-04-25T01:03:17;1.35;;;1.00;;
29906;SDS011;16776;50.958;10.994;2023-04-25T01:05:45;1.55;;;1.45;;
29906;SDS011;16776;50.958;10.994;2023-04-25T01:08:12;1.50;;;1.40;;
29906;SDS011;16776;50.958;10.994;2023-04-25T01:10:39;2.65;;;1.40;;
29906;SDS011;16776;50.958;10.994;2023-04-25T01:13:07;1.20;;;1.10;;
29906;SDS011;16776;50.958;10.994;2023-04-25T01:15:34;2.17;;;1.20;;
29906;SDS011;16776;50.958;10.994;2023-04-25T01:18:01;1.33;;;1.23;;
29906;SDS011;16776;50.958;10.994;2023-04-25T01:20:28;1.40;;;1.27;;
29906;SDS011;16776;50.958;10.994;2023-04-25T01:22:59;1.77;;;1.67;;
29906;SDS011;16776;50.958;10.994;2023-04-25T01:25:27;3.20;;;1.50;;
29906;SDS011;16776;50.958;10.994;2023-04-25T01:27:53;2.03;;;1.30;;
29906;SDS011;16776;50.958;10.994;2023-04-25T01:30:20;1.52;;;1.35;;
29906;SDS011;16776;50.958;10.994;2023-04-25T01:32:47;1.77;;;1.38;;
29906;SDS011;16776;50.958;10.994;2023-04-25T01:35:14;1.75;;;1.63;;
29906;SDS011;16776;50.958;10.994;2023-04-25T01:37:41;1.35;;;1.23;;
29906;SDS011;16776;50.958;10.994;2023-04-25T01:40:10;1.30;;;1.20;;
29906;SDS011;16776;50.958;10.994;2023-04-25T01:42:39;3.40;;;1.70;;
29906;SDS011;16776;50.958;10.994;2023-04-25T01:45:08;2.60;;;1.45;;
29906;SDS011;16776;50.958;10.994;2023-04-25T01:47:35;2.20;;;1.02;;
29906;SDS011;16776;50.958;10.994;2023-04-25T01:50:02;1.75;;;1.27;;
29906;SDS011;16776;50.958;10.994;2023-04-25T01:52:29;1.60;;;1.10;;
29906;SDS011;16776;50.958;10.994;2023-04-25T01:54:56;1.45;;;1.05;;
29906;SDS011;16776;50.958;10.994;2023-04-25T01:57:25;1.08;;;1.02;;
29906;SDS011;16776;50.958;10.994;2023-04-25T01:59:54;1.27;;;1.05;;
29906;SDS011;16776;50.958;10.994;2023-04-25T02:02:24;1.25;;;1.15;;
29906;SDS011;16776;50.958;10.994;2023-04-25T02:04:51;2.00;;;1.10;;
29906;SDS011;16776;50.958;10.994;2023-04-25T02:07:19;2.35;;;1.02;;
29906;SDS011;16776;50.958;10.994;2023-04-25T02:09:45;1.23;;;1.20;;
29906;SDS011;16776;50.958;10.994;2023-04-25T02:12:12;1.30;;;1.20;;
29906;SDS011;16776;50.958;10.994;2023-04-25T02:14:43;0.95;;;0.90;;
29906;SDS011;16776;50.958;10.994;2023-04-25T02:17:09;1.00;;;0.90;;
29906;SDS011;16776;50.958;10.994;2023-04-25T02:19:37;1.58;;;1.00;;
29906;SDS011;16776;50.958;10.994;2023-04-25T02:22:04;1.48;;;1.38;;
29906;SDS011;16776;50.958;10.994;2023-04-25T02:24:30;1.50;;;1.05;;
29906;SDS011;16776;50.958;10.994;2023-04-25T02:26:58;1.60;;;1.23;;
29906;SDS011;16776;50.958;10.994;2023-04-25T02:29:25;1.50;;;1.17;;
29906;SDS011;16776;50.958;10.994;2023-04-25T02:31:53;1.50;;;1.17;;
29906;SDS011;16776;50.958;10.994;2023-04-25T02:34:19;3.47;;;1.42;;
29906;SDS011;16776;50.958;10.994;2023-04-25T02:36:48;2.30;;;0.80;;
29906;SDS011;16776;50.958;10.994;2023-04-25T02:39:15;0.93;;;0.93;;
29906;SDS011;16776;50.958;10.994;2023-04-25T02:41:42;1.13;;;1.02;;
29906;SDS011;16776;50.958;10.994;2023-04-25T02:44:09;1.05;;;1.00;;
29906;SDS011;16776;50.958;10.994;2023-04-25T02:46:38;1.35;;;1.13;;
29906;SDS011;16776;50.958;10.994;2023-04-25T02:49:06;1.00;;;1.00;;
29906;SDS011;16776;50.958;10.994;2023-04-25T02:51:33;1.08;;;1.02;;
29906;SDS011;16776;50.958;10.994;2023-04-25T02:53:59;0.95;;;0.95;;
29906;SDS011;16776;50.958;10.994;2023-04-25T02:56:26;2.03;;;1.50;;
29906;SDS011;16776;50.958;10.994;2023-04-25T02:58:53;0.82;;;0.82;;
29906;SDS011;16776;50.958;10.994;2023-04-25T03:01:20;1.05;;;0.95;;
29906;SDS011;16776;50.958;10.994;2023-04-25T03:03:46;1.42;;;1.10;;
29906;SDS011;16776;50.958;10.994;2023-04-25T03:06:14;1.48;;;1.23;;
29906;SDS011;16776;50.958;10.994;2023-04-25T03:08:41;1.00;;;0.98;;
29906;SDS011;16776;50.958;10.994;2023-04-25T03:11:08;0.77;;;0.77;;
29906;SDS011;16776;50.958;10.994;2023-04-25T03:13:35;1.00;;;0.93;;
29906;SDS011;16776;50.958;10.994;2023-04-25T03:16:01;1.10;;;1.00;;
29906;SDS011;16776;50.958;10.994;2023-04-25T03:18:28;1.15;;;1.15;;
29906;SDS011;16776;50.958;10.994;2023-04-25T03:20:55;0.80;;;0.80;;
29906;SDS011;16776;50.958;10.994;2023-04-25T03:23:23;1.20;;;1.10;;
29906;SDS011;16776;50.958;10.994;2023-04-25T03:25:49;1.30;;;1.20;;
29906;SDS011;16776;50.958;10.994;2023-04-25T03:28:16;2.08;;;1.50;;
29906;SDS011;16776;50.958;10.994;2023-04-25T03:30:43;1.77;;;1.05;;
29906;SDS011;16776;50.958;10.994;2023-04-25T03:33:09;1.40;;;0.93;;
29906;SDS011;16776;50.958;10.994;2023-04-25T03:35:36;1.67;;;1.35;;
29906;SDS011;16776;50.958;10.994;2023-04-25T03:38:02;2.00;;;1.08;;
29906;SDS011;16776;50.958;10.994;2023-04-25T03:40:30;0.98;;;0.90;;
29906;SDS011;16776;50.958;10.994;2023-04-25T03:42:57;1.17;;;1.10;;
29906;SDS011;16776;50.958;10.994;2023-04-25T03:45:26;1.45;;;1.35;;
29906;SDS011;16776;50.958;10.994;2023-04-25T03:47:53;1.52;;;1.30;;
29906;SDS011;16776;50.958;10.994;2023-04-25T03:50:20;1.38;;;1.10;;
29906;SDS011;16776;50.958;10.994;2023-04-25T03:52:47;1.33;;;1.10;;
29906;SDS011;16776;50.958;10.994;2023-04-25T03:55:13;1.25;;;1.00;;
29906;SDS011;16776;50.958;10.994;2023-04-25T03:57:41;1.55;;;1.15;;
29906;SDS011;16776;50.958;10.994;2023-04-25T04:00:08;1.48;;;1.10;;
29906;SDS011;16776;50.958;10.994;2023-04-25T04:02:35;1.40;;;1.17;;
29906;SDS011;16776;50.958;10.994;2023-04-25T04:05:02;1.15;;;1.05;;
29906;SDS011;16776;50.958;10.994;2023-04-25T04:07:30;1.27;;;1.17;;
29906;SDS011;16776;50.958;10.994;2023-04-25T04:09:58;1.80;;;0.95;;
29906;SDS011;16776;50.958;10.994;2023-04-25T04:12:26;1.30;;;1.20;;
29906;SDS011;16776;50.958;10.994;2023-04-25T04:14:54;1.75;;;1.20;;
29906;SDS011;16776;50.958;10.994;2023-04-25T04:17:20;1.33;;;1.08;;
29906;SDS011;16776;50.958;10.994;2023-04-25T04:19:47;0.95;;;0.95;;
29906;SDS011;16776;50.958;10.994;2023-04-25T04:22:16;1.73;;;0.80;;
29906;SDS011;16776;50.958;10.994;2023-04-25T04:24:42;1.20;;;0.82;;
29906;SDS011;16776;50.958;10.994;2023-04-25T04:27:11;1.63;;;1.48;;
29906;SDS011;16776;50.958;10.994;2023-04-25T04:29:38;1.45;;;0.93;;
29906;SDS011;16776;50.958;10.994;2023-04-25T04:32:09;2.17;;;1.13;;
29906;SDS011;16776;50.958;10.994;2023-04-25T04:34:35;1.77;;;1.15;;
29906;SDS011;16776;50.958;10.994;2023-04-25T04:37:02;1.48;;;1.10;;
29906;SDS011;16776;50.958;10.994;2023-04-25T04:39:29;2.88;;;1.08;;
29906;SDS011;16776;50.958;10.994;2023-04-25T04:41:55;1.83;;;1.42;;
29906;SDS011;16776;50.958;10.994;2023-04-25T04:44:22;1.85;;;1.08;;
29906;SDS011;16776;50.958;10.994;2023-04-25T04:46:48;1.75;;;1.10;;
29906;SDS011;16776;50.958;10.994;2023-04-25T04:49:17;1.23;;;1.00;;
29906;SDS011;16776;50.958;10.994;2023-04-25T04:51:44;1.30;;;1.17;;
29906;SDS011;16776;50.958;10.994;2023-04-25T04:54:10;1.05;;;0.93;;
29906;SDS011;16776;50.958;10.994;2023-04-25T04:56:37;0.90;;;0.90;;
29906;SDS011;16776;50.958;10.994;2023-04-25T04:59:04;1.65;;;1.52;;
29906;SDS011;16776;50.958;10.994;2023-04-25T05:01:34;2.40;;;1.20;;
29906;SDS011;16776;50.958;10.994;2023-04-25T05:04:01;0.93;;;0.90;;
29906;SDS011;16776;50.958;10.994;2023-04-25T05:06:30;1.15;;;1.00;;
29906;SDS011;16776;50.958;10.994;2023-04-25T05:08:56;2.50;;;1.40;;
29906;SDS011;16776;50.958;10.994;2023-04-25T05:11:23;1.20;;;1.10;;
29906;SDS011;16776;50.958;10.994;2023-04-25T05:13:53;2.53;;;1.23;;
29906;SDS011;16776;50.958;10.994;2023-04-25T05:16:19;1.83;;;1.30;;
29906;SDS011;16776;50.958;10.994;2023-04-25T05:18:47;1.98;;;1.40;;
29906;SDS011;16776;50.958;10.994;2023-04-25T05:21:14;2.05;;;1.40;;
29906;SDS011;16776;50.958;10.994;2023-04-25T05:23:42;2.92;;;1.27;;
29906;SDS011;16776;50.958;10.994;2023-04-25T05:26:09;1.38;;;1.20;;
29906;SDS011;16776;50.958;10.994;2023-04-25T05:28:39;2.55;;;1.27;;
29906;SDS011;16776;50.958;10.994;2023-04-25T05:31:06;3.40;;;1.60;;
29906;SDS011;16776;50.958;10.994;2023-04-25T05:33:33;1.55;;;1.17;;
29906;SDS011;16776;50.958;10.994;2023-04-25T05:35:59;1.13;;;1.00;;
29906;SDS011;16776;50.958;10.994;2023-04-25T05:38:26;1.45;;;1.35;;
29906;SDS011;16776;50.958;10.994;2023-04-25T05:40:55;3.55;;;1.48;;
29906;SDS011;16776;50.958;10.994;2023-04-25T05:43:22;1.13;;;1.02;;
29906;SDS011;16776;50.958;10.994;2023-04-25T05:45:49;2.97;;;1.27;;
29906;SDS011;16776;50.958;10.994;2023-04-25T05:48:16;1.33;;;0.68;;
29906;SDS011;16776;50.958;10.994;2023-04-25T05:50:42;2.53;;;1.30;;
29906;SDS011;16776;50.958;10.994;2023-04-25T05:53:09;2.45;;;1.20;;
29906;SDS011;16776;50.958;10.994;2023-04-25T05:55:36;2.20;;;1.00;;
29906;SDS011;16776;50.958;10.994;2023-04-25T05:58:04;1.67;;;1.17;;
29906;SDS011;16776;50.958;10.994;2023-04-25T06:00:31;2.88;;;1.17;;
29906;SDS011;16776;50.958;10.994;2023-04-25T06:02:58;1.27;;;1.08;;
29906;SDS011;16776;50.958;10.994;2023-04-25T06:05:26;2.55;;;1.20;;
29906;SDS011;16776;50.958;10.994;2023-04-25T06:07:52;0.80;;;0.80;;
29906;SDS011;16776;50.958;10.994;2023-04-25T06:10:19;1.92;;;1.10;;
29906;SDS011;16776;50.958;10.994;2023-04-25T06:12:47;1.17;;;1.08;;
29906;SDS011;16776;50.958;10.994;2023-04-25T06:15:16;2.55;;;1.10;;
29906;SDS011;16776;50.958;10.994;2023-04-25T06:17:43;1.08;;;0.90;;
29906;SDS011;16776;50.958;10.994;2023-04-25T06:20:10;1.10;;;1.00;;
29906;SDS011;16776;50.958;10.994;2023-04-25T06:22:37;0.95;;;0.90;;
29906;SDS011;16776;50.958;10.994;2023-04-25T06:25:04;1.23;;;0.98;;
29906;SDS011;16776;50.958;10.994;2023-04-25T06:27:32;1.83;;;1.00;;
29906;SDS011;16776;50.958;10.994;2023-04-25T06:29:58;2.38;;;0.98;;
29906;SDS011;16776;50.958;10.994;2023-04-25T06:32:26;1.80;;;0.98;;
29906;SDS011;16776;50.958;10.994;2023-04-25T06:34:54;1.30;;;1.20;;
29906;SDS011;16776;50.958;10.994;2023-04-25T06:37:21;1.95;;;1.20;;
29906;SDS011;16776;50.958;10.994;2023-04-25T06:39:48;1.30;;;1.17;;
29906;SDS011;16776;50.958;10.994;2023-04-25T06:42:14;1.17;;;0.75;;
29906;SDS011;16776;50.958;10.994;2023-04-25T06:44:41;1.85;;;0.90;;
29906;SDS011;16776;50.958;10.994;2023-04-25T06:47:07;0.88;;;0.73;;
29906;SDS011;16776;50.958;10.994;2023-04-25T06:49:35;2.33;;;1.00;;
29906;SDS011;16776;50.958;10.994;2023-04-25T06:52:02;0.80;;;0.80;;
29906;SDS011;16776;50.958;10.994;2023-04-25T06:54:28;1.40;;;1.30;;
29906;SDS011;16776;50.958;10.994;2023-04-25T06:56:55;1.38;;;0.70;;
29906;SDS011;16776;50.958;10.994;2023-04-25T06:59:22;2.05;;;0.90;;
29906;SDS011;16776;50.958;10.994;2023-04-25T07:01:49;1.42;;;0.93;;
29906;SDS011;16776;50.958;10.994;2023-04-25T07:04:16;1.40;;;0.90;;
29906;SDS011;16776;50.958;10.994;2023-04-25T07:06:44;1.30;;;0.88;;
29906;SDS011;16776;50.958;10.994;2023-04-25T07:09:12;1.70;;;0.98;;
29906;SDS011;16776;50.958;10.994;2023-04-25T07:11:39;0.70;;;0.70;;
29906;SDS011;16776;50.958;10.994;2023-04-25T07:14:05;0.45;;;0.45;;
29906;SDS011;16776;50.958;10.994;2023-04-25T07:16:32;0.70;;;0.60;;
29906;SDS011;16776;50.958;10.994;2023-04-25T07:19:01;1.27;;;0.82;;
29906;SDS011;16776;50.958;10.994;2023-04-25T07:21:27;1.00;;;0.70;;
29906;SDS011;16776;50.958;10.994;2023-04-25T07:23:57;0.73;;;0.73;;
29906;SDS011;16776;50.958;10.994;2023-04-25T07:26:23;0.65;;;0.57;;
29906;SDS011;16776;50.958;10.994;2023-04-25T07:28:50;0.70;;;0.70;;
29906;SDS011;16776;50.958;10.994;2023-04-25T07:31:17;1.17;;;0.73;;
29906;SDS011;16776;50.958;10.994;2023-04-25T07:33:44;1.83;;;0.82;;
29906;SDS011;16776;50.958;10.994;2023-04-25T07:36:11;0.95;;;0.82;;
29906;SDS011;16776;50.958;10.994;2023-04-25T07:38:37;0.73;;;0.73;;
29906;SDS011;16776;50.958;10.994;2023-04-25T07:41:05;1.17;;;1.00;;
29906;SDS011;16776;50.958;10.994;2023-04-25T07:43:34;1.92;;;1.05;;
29906;SDS011;16776;50.958;10.994;2023-04-25T07:46:00;0.73;;;0.73;;
29906;SDS011;16776;50.958;10.994;2023-04-25T07:48:27;1.25;;;1.13;;
29906;SDS011;16776;50.958;10.994;2023-04-25T07:50:54;1.85;;;0.90;;
29906;SDS011;16776;50.958;10.994;2023-04-25T07:53:20;1.90;;;0.98;;
29906;SDS011;16776;50.958;10.994;2023-04-25T07:55:47;2.40;;;0.90;;
29906;SDS011;16776;50.958;10.994;2023-04-25T07:58:15;1.10;;;1.10;;
29906;SDS011;16776;50.958;10.994;2023-04-25T08:00:46;0.80;;;0.57;;
29906;SDS011;16776;50.958;10.994;2023-04-25T08:03:12;0.90;;;0.80;;
29906;SDS011;16776;50.958;10.994;2023-04-25T08:05:42;1.48;;;1.38;;
29906;SDS011;16776;50.958;10.994;2023-04-25T08:08:08;1.10;;;1.05;;
29906;SDS011;16776;50.958;10.994;2023-04-25T08:10:38;1.17;;;1.15;;
29906;SDS011;16776;50.958;10.994;2023-04-25T08:13:05;1.08;;;0.88;;
29906;SDS011;16776;50.958;10.994;2023-04-25T08:15:33;0.90;;;0.88;;
29906;SDS011;16776;50.958;10.994;2023-04-25T08:18:00;1.15;;;1.05;;
29906;SDS011;16776;50.958;10.994;2023-04-25T08:20:26;1.75;;;0.95;;
29906;SDS011;16776;50.958;10.994;2023-04-25T08:22:53;2.45;;;1.00;;
29906;SDS011;16776;50.958;10.994;2023-04-25T08:25:20;1.00;;;0.90;;
29906;SDS011;16776;50.958;10.994;2023-04-25T08:27:46;2.28;;;1.10;;
29906;SDS011;16776;50.958;10.994;2023-04-25T08:30:13;1.20;;;0.95;;
29906;SDS011;16776;50.958;10.994;2023-04-25T08:32:44;1.27;;;0.80;;
29906;SDS011;16776;50.958;10.994;2023-04-25T08:35:11;1.95;;;1.25;;
29906;SDS011;16776;50.958;10.994;2023-04-25T08:37:37;1.27;;;0.82;;
29906;SDS011;16776;50.958;10.994;2023-04-25T08:40:04;1.20;;;0.80;;
29906;SDS011;16776;50.958;10.994;2023-04-25T08:42:34;2.13;;;1.00;;
29906;SDS011;16776;50.958;10.994;2023-04-25T08:45:03;0.90;;;0.90;;
29906;SDS011;16776;50.958;10.994;2023-04-25T08:47:31;0.88;;;0.77;;
29906;SDS011;16776;50.958;10.994;2023-04-25T08:50:01;1.58;;;1.00;;
29906;SDS011;16776;50.958;10.994;2023-04-25T08:52:32;1.10;;;1.00;;
29906;SDS011;16776;50.958;10.994;2023-04-25T08:55:03;2.90;;;1.10;;
29906;SDS011;16776;50.958;10.994;2023-04-25T08:57:33;0.90;;;0.90;;
29906;SDS011;16776;50.958;10.994;2023-04-25T09:00:00;1.98;;;1.00;;
29906;SDS011;16776;50.958;10.994;2023-04-25T09:02:29;1.05;;;1.00;;
29906;SDS011;16776;50.958;10.994;2023-04-25T09:04:56;1.17;;;1.10;;
29906;SDS011;16776;50.958;10.994;2023-04-25T09:07:24;0.70;;;0.70;;
29906;SDS011;16776;50.958;10.994;2023-04-25T09:09:50;0.95;;;0.93;;
29906;SDS011;16776;50.958;10.994;2023-04-25T09:12:18;1.80;;;0.77;;
29906;SDS011;16776;50.958;10.994;2023-04-25T09:14:52;1.20;;;0.80;;
29906;SDS011;16776;50.958;10.994;2023-04-25T09:17:29;0.50;;;0.50;;
29906;SDS011;16776;50.958;10.994;2023-04-25T09:19:55;1.20;;;0.50;;
29906;SDS011;16776;50.958;10.994;2023-04-25T09:22:33;0.77;;;0.70;;
29906;SDS011;16776;50.958;10.994;2023-04-25T09:25:02;1.30;;;0.45;;
29906;SDS011;16776;50.958;10.994;2023-04-25T09:27:30;1.77;;;0.73;;
29906;SDS011;16776;50.958;10.994;2023-04-25T09:29:57;1.25;;;0.43;;
29906;SDS011;16776;50.958;10.994;2023-04-25T09:32:25;1.95;;;0.45;;
29906;SDS011;16776;50.958;10.994;2023-04-25T09:34:52;0.70;;;0.60;;
29906;SDS011;16776;50.958;10.994;2023-04-25T09:37:21;1.40;;;0.50;;
29906;SDS011;16776;50.958;10.994;2023-04-25T09:39:50;1.15;;;0.57;;
29906;SDS011;16776;50.958;10.994;2023-04-25T09:42:21;1.52;;;0.80;;
29906;SDS011;16776;50.958;10.994;2023-04-25T09:44:48;1.65;;;0.52;;
29906;SDS011;16776;50.958;10.994;2023-04-25T09:47:17;1.00;;;0.50;;
29906;SDS011;16776;50.958;10.994;2023-04-25T09:49:46;0.77;;;0.40;;
29906;SDS011;16776;50.958;10.994;2023-04-25T09:52:14;1.92;;;0.50;;
29906;SDS011;16776;50.958;10.994;2023-04-25T09:54:42;2.22;;;0.77;;
29906;SDS011;16776;50.958;10.994;2023-04-25T09:57:11;1.95;;;0.70;;
29906;SDS011;16776;50.958;10.994;2023-04-25T09:59:39;1.85;;;0.70;;
29906;SDS011;16776;50.958;10.994;2023-04-25T10:02:09;1.10;;;0.60;;
29906;SDS011;16776;50.958;10.994;2023-04-25T10:04:37;1.60;;;0.65;;
29906;SDS011;16776;50.958;10.994;2023-04-25T10:07:05;4.10;;;0.82;;
29906;SDS011;16776;50.958;10.994;2023-04-25T10:09:32;2.70;;;0.80;;
29906;SDS011;16776;50.958;10.994;2023-04-25T10:12:01;2.55;;;0.70;;
29906;SDS011;16776;50.958;10.994;2023-04-25T10:14:30;1.23;;;0.47;;
29906;SDS011;16776;50.958;10.994;2023-04-25T10:16:57;1.67;;;0.63;;
29906;SDS011;16776;50.958;10.994;2023-04-25T10:19:25;1.25;;;0.60;;
29906;SDS011;16776;50.958;10.994;2023-04-25T10:21:52;2.33;;;0.90;;
29906;SDS011;16776;50.958;10.994;2023-04-25T10:24:22;2.00;;;0.95;;
29906;SDS011;16776;50.958;10.994;2023-04-25T10:26:50;2.33;;;0.90;;
29906;SDS011;16776;50.958;10.994;2023-04-25T10:29:24;2.05;;;0.63;;
29906;SDS011;16776;50.958;10.994;2023-04-25T10:31:53;2.72;;;0.80;;
29906;SDS011;16776;50.958;10.994;2023-04-25T10:34:23;1.63;;;0.90;;
29906;SDS011;16776;50.958;10.994;2023-04-25T10:36:51;1.52;;;0.63;;
29906;SDS011;16776;50.958;10.994;2023-04-25T10:39:22;2.55;;;0.60;;
29906;SDS011;16776;50.958;10.994;2023-04-25T10:41:53;2.28;;;0.60;;
29906;SDS011;16776;50.958;10.994;2023-04-25T10:46:54;2.50;;;0.68;;
29906;SDS011;16776;50.958;10.994;2023-04-25T10:49:32;2.45;;;0.57;;
29906;SDS011;16776;50.958;10.994;2023-04-25T10:52:15;1.90;;;0.50;;
29906;SDS011;16776;50.958;10.994;2023-04-25T10:54:46;1.77;;;0.65;;
29906;SDS011;16776;50.958;10.994;2023-04-25T10:57:26;1.48;;;0.82;;
29906;SDS011;16776;50.958;10.994;2023-04-25T11:00:00;1.48;;;0.50;;
29906;SDS011;16776;50.958;10.994;2023-04-25T11:02:33;3.88;;;0.80;;
29906;SDS011;16776;50.958;10.994;2023-04-25T11:05:04;3.10;;;0.80;;
29906;SDS011;16776;50.958;10.994;2023-04-25T11:07:37;1.88;;;1.00;;
29906;SDS011;16776;50.958;10.994;2023-04-25T11:10:05;2.72;;;0.90;;
29906;SDS011;16776;50.958;10.994;2023-04-25T11:12:32;1.67;;;0.70;;
29906;SDS011;16776;50.958;10.994;2023-04-25T11:15:00;2.97;;;1.15;;
29906;SDS011;16776;50.958;10.994;2023-04-25T11:17:31;2.47;;;0.80;;
29906;SDS011;16776;50.958;10.994;2023-04-25T11:19:59;1.10;;;0.80;;
29906;SDS011;16776;50.958;10.994;2023-04-25T11:22:27;2.05;;;0.68;;
29906;SDS011;16776;50.958;10.994;2023-04-25T11:24:54;3.10;;;0.73;;
29906;SDS011;16776;50.958;10.994;2023-04-25T11:27:22;1.98;;;0.88;;
29906;SDS011;16776;50.958;10.994;2023-04-25T11:29:50;1.35;;;0.90;;
29906;SDS011;16776;50.958;10.994;2023-04-25T11:32:17;2.65;;;1.10;;
29906;SDS011;16776;50.958;10.994;2023-04-25T11:34:45;1.92;;;0.60;;
29906;SDS011;16776;50.958;10.994;2023-04-25T11:37:13;1.58;;;0.90;;
29906;SDS011;16776;50.958;10.994;2023-04-25T11:39:44;2.28;;;1.02;;
29906;SDS011;16776;50.958;10.994;2023-04-25T11:42:12;1.55;;;0.88;;
29906;SDS011;16776;50.958;10.994;2023-04-25T11:44:39;1.30;;;0.68;;
29906;SDS011;16776;50.958;10.994;2023-04-25T11:47:06;1.05;;;0.65;;
29906;SDS011;16776;50.958;10.994;2023-04-25T11:49:34;3.00;;;0.70;;
29906;SDS011;16776;50.958;10.994;2023-04-25T11:52:02;2.10;;;1.00;;
29906;SDS011;16776;50.958;10.994;2023-04-25T11:54:34;0.85;;;0.80;;
29906;SDS011;16776;50.958;10.994;2023-04-25T11:57:02;3.17;;;0.70;;
29906;SDS011;16776;50.958;10.994;2023-04-25T11:59:28;1.42;;;0.80;;
29906;SDS011;16776;50.958;10.994;2023-04-25T12:01:55;2.38;;;0.80;;
29906;SDS011;16776;50.958;10.994;2023-04-25T12:04:23;1.85;;;1.02;;
29906;SDS011;16776;50.958;10.994;2023-04-25T12:06:51;1.45;;;0.70;;
29906;SDS011;16776;50.958;10.994;2023-04-25T12:09:27;1.35;;;0.63;;
29906;SDS011;16776;50.958;10.994;2023-04-25T12:11:56;3.53;;;0.88;;
29906;SDS011;16776;50.958;10.994;2023-04-25T12:14:24;0.80;;;0.60;;
29906;SDS011;16776;50.958;10.994;2023-04-25T12:16:54;1.25;;;0.95;;
29906;SDS011;16776;50.958;10.994;2023-04-25T12:19:22;1.63;;;0.80;;
29906;SDS011;16776;50.958;10.994;2023-04-25T12:21:49;2.75;;;0.95;;
29906;SDS011;16776;50.958;10.994;2023-04-25T12:24:17;3.70;;;0.90;;
29906;SDS011;16776;50.958;10.994;2023-04-25T12:26:50;5.00;;;1.20;;
29906;SDS011;16776;50.958;10.994;2023-04-25T12:29:18;3.95;;;1.05;;
29906;SDS011;16776;50.958;10.994;2023-04-25T12:31:46;5.45;;;1.00;;
29906;SDS011;16776;50.958;10.994;2023-04-25T12:34:13;1.90;;;0.68;;
29906;SDS011;16776;50.958;10.994;2023-04-25T12:36:39;2.50;;;0.60;;
29906;SDS011;16776;50.958;10.994;2023-04-25T12:39:06;3.63;;;0.90;;
29906;SDS011;16776;50.958;10.994;2023-04-25T12:41:33;2.85;;;0.85;;
29906;SDS011;16776;50.958;10.994;2023-04-25T12:44:01;2.38;;;0.70;;
29906;SDS011;16776;50.958;10.994;2023-04-25T12:46:28;1.42;;;0.60;;
29906;SDS011;16776;50.958;10.994;2023-04-25T12:48:54;2.90;;;1.08;;
29906;SDS011;16776;50.958;10.994;2023-04-25T12:51:21;2.95;;;0.80;;
29906;SDS011;16776;50.958;10.994;2023-04-25T12:53:50;6.65;;;0.90;;
29906;SDS011;16776;50.958;10.994;2023-04-25T12:56:18;2.95;;;1.33;;
29906;SDS011;16776;50.958;10.994;2023-04-25T12:58:45;2.25;;;0.80;;
29906;SDS011;16776;50.958;10.994;2023-04-25T13:01:14;2.75;;;0.82;;
29906;SDS011;16776;50.958;10.994;2023-04-25T13:03:41;3.92;;;0.88;;
29906;SDS011;16776;50.958;10.994;2023-04-25T13:06:07;2.72;;;0.82;;
29906;SDS011;16776;50.958;10.994;2023-04-25T13:08:34;1.55;;;0.82;;
29906;SDS011;16776;50.958;10.994;2023-04-25T13:11:01;3.00;;;1.00;;
29906;SDS011;16776;50.958;10.994;2023-04-25T13:13:28;2.78;;;0.93;;
29906;SDS011;16776;50.958;10.994;2023-04-25T13:15:56;3.95;;;0.77;;
29906;SDS011;16776;50.958;10.994;2023-04-25T13:18:24;1.40;;;0.80;;
29906;SDS011;16776;50.958;10.994;2023-04-25T13:20:51;0.75;;;0.70;;
29906;SDS011;16776;50.958;10.994;2023-04-25T13:23:18;1.15;;;0.60;;
29906;SDS011;16776;50.958;10.994;2023-04-25T13:25:46;2.47;;;0.63;;
29906;SDS011;16776;50.958;10.994;2023-04-25T13:28:13;1.15;;;0.60;;
29906;SDS011;16776;50.958;10.994;2023-04-25T13:30:41;3.35;;;0.73;;
29906;SDS011;16776;50.958;10.994;2023-04-25T13:33:08;2.80;;;0.80;;
29906;SDS011;16776;50.958;10.994;2023-04-25T13:35:42;2.10;;;0.70;;
29906;SDS011;16776;50.958;10.994;2023-04-25T13:38:11;0.55;;;0.50;;
29906;SDS011;16776;50.958;10.994;2023-04-25T13:40:38;2.63;;;0.88;;
29906;SDS011;16776;50.958;10.994;2023-04-25T13:43:07;5.13;;;0.80;;
29906;SDS011;16776;50.958;10.994;2023-04-25T13:45:39;2.47;;;0.70;;
29906;SDS011;16776;50.958;10.994;2023-04-25T13:48:06;2.10;;;0.70;;
29906;SDS011;16776;50.958;10.994;2023-04-25T13:50:32;2.97;;;0.50;;
29906;SDS011;16776;50.958;10.994;2023-04-25T13:53:03;1.13;;;0.60;;
29906;SDS011;16776;50.958;10.994;2023-04-25T13:55:30;1.55;;;0.70;;
29906;SDS011;16776;50.958;10.994;2023-04-25T13:57:57;1.20;;;0.73;;
29906;SDS011;16776;50.958;10.994;2023-04-25T14:00:23;2.25;;;0.70;;
29906;SDS011;16776;50.958;10.994;2023-04-25T14:02:50;0.95;;;0.60;;
29906;SDS011;16776;50.958;10.994;2023-04-25T14:05:17;0.85;;;0.70;;
29906;SDS011;16776;50.958;10.994;2023-04-25T14:07:44;0.70;;;0.52;;
29906;SDS011;16776;50.958;10.994;2023-04-25T14:10:12;1.95;;;0.60;;
29906;SDS011;16776;50.958;10.994;2023-04-25T14:12:39;2.20;;;0.75;;
29906;SDS011;16776;50.958;10.994;2023-04-25T14:15:05;0.50;;;0.45;;
29906;SDS011;16776;50.958;10.994;2023-04-25T14:17:32;1.40;;;0.73;;
29906;SDS011;16776;50.958;10.994;2023-04-25T14:19:59;1.15;;;0.40;;
29906;SDS011;16776;50.958;10.994;2023-04-25T14:22:25;1.55;;;0.63;;
29906;SDS011;16776;50.958;10.994;2023-04-25T14:24:52;1.58;;;0.50;;
29906;SDS011;16776;50.958;10.994;2023-04-25T14:27:20;1.67;;;0.60;;
29906;SDS011;16776;50.958;10.994;2023-04-25T14:29:46;1.52;;;0.50;;
29906;SDS011;16776;50.958;10.994;2023-04-25T14:32:13;2.28;;;0.40;;
29906;SDS011;16776;50.958;10.994;2023-04-25T14:34:40;0.75;;;0.47;;
29906;SDS011;16776;50.958;10.994;2023-04-25T14:37:07;0.85;;;0.60;;
29906;SDS011;16776;50.958;10.994;2023-04-25T14:39:36;0.52;;;0.40;;